Piltene — V7LN6 — position and weather

sailwx.info

Track history (hours):
 
Tides and Currents Weather Stations Pressure Air Temp Water Temp Dewpoint Dewpoint Depression Visibility Wind Speed Wind Dir Waves Ship Positions

Piltene

Last reported at 2018-May-25 11:14 UTC. Time now 2018-May-25 18:48 UTC.
Position N 40°05' W 072°01'.

Length 183 m; draft 10.2 m.

Type: Ship. MMSI: 538002324.

Date/timePositionNaut miles runAvg speedWind from/ knotsBaromVisibWave heightAir tempDewpointWater temp
2018-May-25 11:14N 40°05' W 072°01'312.2
2018-May-25 10:58N 40°06' W 072°05'2112.1
2018-May-25 09:14N 40°12' W 072°32'1412.0
2018-May-25 08:02N 40°16' W 072°50'011.8
2018-May-25 08:00N 40°16' W 072°50'812.0
2018-May-25 07:18N 40°19' W 073°01'411.9
2018-May-25 06:56N 40°20' W 073°06'25 7.6
2018-May-25 03:41N 40°29' W 073°37'0 0.0
2018-May-25 03:26N 40°29' W 073°37'0 0.0
2018-May-25 02:59N 40°29' W 073°37'0 0.0
2018-May-25 02:26N 40°29' W 073°37'0 0.0
2018-May-25 00:35N 40°29' W 073°37'0 0.0
2018-May-24 23:41N 40°29' W 073°37'19 1.2
2018-May-24 08:11N 40°29' W 074°01'910.5
2018-May-24 07:22N 40°30' W 074°13'2 0.0
2018-May-22 06:46N 40°32' W 074°15'2 4.2
2018-May-22 06:22N 40°30' W 074°15'2 5.4
2018-May-22 06:01N 40°30' W 074°13'4 7.8
2018-May-22 05:30N 40°30' W 074°08'510.2
2018-May-22 05:01N 40°29' W 074°01'510.3
2018-May-22 04:31N 40°27' W 073°55'510.5
2018-May-22 04:00N 40°27' W 073°48'510.1
2018-May-22 03:30N 40°27' W 073°42'  
Track history (hours):
 
Tides and Currents Weather Stations Pressure Air Temp Water Temp Dewpoint Dewpoint Depression Visibility Wind Speed Wind Dir Waves Ship Positions

Piltene

Last reported at 2018-May-25 11:14 UTC. Time now 2018-May-25 18:48 UTC.
Position N 40°05' W 072°01'.

Length 183 m; draft 10.2 m.

Type: Ship. MMSI: 538002324.

Date/timePositionNaut miles runAvg speedWind from/ knotsBaromVisibWave heightAir tempDewpointWater temp
2018-May-25 11:14N 40°05' W 072°01'312.2
2018-May-25 10:58N 40°06' W 072°05'2112.1
2018-May-25 09:14N 40°12' W 072°32'1412.0
2018-May-25 08:02N 40°16' W 072°50'011.8
2018-May-25 08:00N 40°16' W 072°50'812.0
2018-May-25 07:18N 40°19' W 073°01'411.9
2018-May-25 06:56N 40°20' W 073°06'25 7.6
2018-May-25 03:41N 40°29' W 073°37'0 0.0
2018-May-25 03:26N 40°29' W 073°37'0 0.0
2018-May-25 02:59N 40°29' W 073°37'0 0.0
2018-May-25 02:26N 40°29' W 073°37'0 0.0
2018-May-25 00:35N 40°29' W 073°37'0 0.0
2018-May-24 23:41N 40°29' W 073°37'19 1.2
2018-May-24 08:11N 40°29' W 074°01'910.5
2018-May-24 07:22N 40°30' W 074°13'2 0.0
2018-May-22 06:46N 40°32' W 074°15'2 4.2
2018-May-22 06:22N 40°30' W 074°15'2 5.4
2018-May-22 06:01N 40°30' W 074°13'4 7.8
2018-May-22 05:30N 40°30' W 074°08'510.2
2018-May-22 05:01N 40°29' W 074°01'510.3
2018-May-22 04:31N 40°27' W 073°55'510.5
2018-May-22 04:00N 40°27' W 073°48'510.1
2018-May-22 03:30N 40°27' W 073°42'  

Dump ship's entire track history